Terminal Aerodrome Forecast
Issued by NWS Jackson, MS

Home | Current Version | Previous Version | Text Only | Print | Product List | Glossary On
Versions: 1 2 3 4 5 6 7 8 9 10 11 12
503
FTUS44 KJAN 261720
TAFHBG
TAF
KHBG 261720Z 2618/2718 19013G19KT P6SM SKC
     FM262100 19011KT P6SM SKC
     FM270700 21004KT P6SM OVC015
     FM271000 25002KT P6SM OVC007
     FM271600 20010KT P6SM BKN015=

USA.gov is the U.S. government's official web portal to all federal, state and local government web resources and services.